Time;durP1;ratioP1;P1;durP2;ratioP2;P2;SDS_P1;SDS_P2;PMS_P1;PMS_P2;Temp;Humidity;BMP_temperature;BMP_pressure;BME280_temperature;BME280_humidity;BME280_pressure;Samples;Min_cycle;Max_cycle;Signal;HPM_P1;HPM_P2
2023/08/04 00:02:00;;;;;;;22.67;20.95;;;18.10;99.90;;;;;;5012437;28;20042;-72
2023/08/04 00:04:26;;;;;;;23.98;21.85;;;18.10;99.90;;;;;;5013293;28;20486;-72
2023/08/04 00:06:52;;;;;;;18.77;17.10;;;18.20;99.90;;;;;;5012521;28;20034;-72
2023/08/04 00:09:18;;;;;;;17.40;15.93;;;18.20;99.90;;;;;;5011806;28;20037;-72
2023/08/04 00:11:44;;;;;;;18.83;17.10;;;18.00;99.90;;;;;;5011790;28;20483;-72
2023/08/04 00:14:10;;;;;;;18.77;16.80;;;18.00;99.90;;;;;;5012022;28;20042;-72
2023/08/04 00:16:37;;;;;;;19.33;17.50;;;18.00;99.90;;;;;;5011983;28;20385;-72
2023/08/04 00:19:03;;;;;;;20.52;16.42;;;18.00;99.90;;;;;;5011905;28;20026;-72
2023/08/04 00:21:29;;;;;;;21.98;16.65;;;18.00;99.90;;;;;;5010941;28;20057;-72
2023/08/04 00:23:58;;;;;;;15.38;13.85;;;18.10;99.90;;;;;;5012912;28;20030;-72
2023/08/04 00:26:25;;;;;;;17.95;15.73;;;18.00;99.90;;;;;;5012305;28;20041;-72
2023/08/04 00:28:51;;;;;;;19.38;15.43;;;18.10;99.90;;;;;;5011753;28;20025;-72
2023/08/04 00:31:17;;;;;;;18.80;16.85;;;18.00;99.90;;;;;;5010845;28;20053;-72
2023/08/04 00:33:43;;;;;;;18.77;16.92;;;18.00;99.90;;;;;;5012707;28;20021;-71
2023/08/04 00:36:09;;;;;;;20.88;16.48;;;18.00;99.90;;;;;;5012261;28;20060;-72
2023/08/04 00:38:35;;;;;;;20.85;16.70;;;18.10;99.90;;;;;;5012646;28;20030;-72
2023/08/04 00:41:02;;;;;;;17.27;15.65;;;18.10;99.90;;;;;;5012561;28;20394;-72
2023/08/04 00:43:28;;;;;;;18.33;15.90;;;18.10;99.90;;;;;;5012859;28;20030;-72
2023/08/04 00:45:54;;;;;;;19.85;15.02;;;18.10;99.90;;;;;;5011913;28;20049;-72
2023/08/04 00:48:20;;;;;;;18.38;16.23;;;18.10;99.90;;;;;;5011481;28;20030;-73
2023/08/04 00:50:46;;;;;;;21.48;19.60;;;18.00;99.90;;;;;;5011780;28;20056;-72
2023/08/04 00:53:13;;;;;;;22.35;18.75;;;17.90;99.90;;;;;;5011492;28;20034;-72
2023/08/04 00:55:41;;;;;;;17.33;15.82;;;17.90;99.90;;;;;;5010581;28;20038;-72
2023/08/04 00:58:07;;;;;;;19.50;17.52;;;17.90;99.90;;;;;;5011237;28;20456;-72
2023/08/04 01:00:33;;;;;;;24.88;18.30;;;17.90;99.90;;;;;;5010263;28;20034;-72
2023/08/04 01:03:00;;;;;;;18.27;16.48;;;17.90;99.90;;;;;;5011228;28;20490;-72
2023/08/04 01:05:30;;;;;;;18.55;16.63;;;17.90;99.90;;;;;;5011768;28;20041;-73
2023/08/04 01:07:58;;;;;;;19.38;16.25;;;17.80;99.90;;;;;;5011365;28;20030;-72
2023/08/04 01:10:29;;;;;;;19.90;16.85;;;17.70;99.90;;;;;;5010857;28;20463;-72
2023/08/04 01:12:55;;;;;;;24.05;18.45;;;17.80;99.90;;;;;;5012468;28;20053;-72
2023/08/04 01:15:22;;;;;;;21.73;17.73;;;17.80;99.90;;;;;;5010546;28;20038;-72
2023/08/04 01:17:48;;;;;;;19.50;17.10;;;17.80;99.90;;;;;;5011105;28;20026;-72
2023/08/04 01:20:14;;;;;;;20.35;17.38;;;17.80;99.90;;;;;;5011677;28;20045;-72
2023/08/04 01:22:41;;;;;;;20.15;17.52;;;17.80;99.90;;;;;;5011128;28;20030;-72
2023/08/04 01:25:07;;;;;;;19.85;17.85;;;17.80;99.90;;;;;;4994615;28;20049;-72
2023/08/04 01:27:37;;;;;;;22.52;18.20;;;17.70;99.90;;;;;;5011148;28;20030;-72
2023/08/04 01:30:05;;;;;;;22.77;15.77;;;17.70;99.90;;;;;;5010540;28;20073;-72
2023/08/04 01:32:31;;;;;;;22.05;19.77;;;17.70;99.90;;;;;;5011836;28;20046;-72
2023/08/04 01:34:57;;;;;;;22.77;20.05;;;17.70;99.90;;;;;;5010783;28;20026;-72
2023/08/04 01:37:23;;;;;;;22.80;20.73;;;17.60;99.90;;;;;;5011015;28;20029;-72
2023/08/04 01:39:50;;;;;;;18.13;15.70;;;17.70;99.90;;;;;;5014672;28;20030;-72
2023/08/04 01:42:16;;;;;;;22.45;20.35;;;17.70;99.90;;;;;;5014037;28;20065;-72
2023/08/04 01:44:42;;;;;;;19.90;18.00;;;17.70;99.90;;;;;;5015749;28;20030;-72
2023/08/04 01:47:08;;;;;;;24.70;22.27;;;17.70;99.90;;;;;;5015227;28;20034;-72
2023/08/04 01:49:34;;;;;;;23.40;20.90;;;17.60;99.90;;;;;;5014284;28;20026;-72
2023/08/04 01:52:01;;;;;;;23.63;21.50;;;17.60;99.90;;;;;;5013969;28;20472;-72
2023/08/04 01:54:27;;;;;;;29.50;26.80;;;17.60;99.90;;;;;;5015569;28;20053;-72
2023/08/04 01:56:53;;;;;;;23.52;18.73;;;17.60;99.90;;;;;;5013675;28;20033;-72
2023/08/04 01:59:20;;;;;;;21.83;19.80;;;17.50;99.90;;;;;;5013661;28;20041;-72
2023/08/04 02:01:46;;;;;;;23.60;21.42;;;17.60;99.90;;;;;;5011209;28;20522;-72
2023/08/04 02:04:12;;;;;;;26.73;24.20;;;17.60;99.90;;;;;;5008484;28;20037;-72
2023/08/04 02:06:38;;;;;;;21.05;18.27;;;17.70;99.90;;;;;;5013569;28;20390;-73
2023/08/04 02:09:04;;;;;;;22.23;20.20;;;17.60;99.90;;;;;;5012411;28;20049;-71
2023/08/04 02:11:33;;;;;;;24.15;18.00;;;17.60;99.90;;;;;;5012153;28;20057;-72
2023/08/04 02:13:59;;;;;;;22.70;19.90;;;17.50;99.90;;;;;;5012385;28;20451;-72
2023/08/04 02:16:25;;;;;;;27.77;20.42;;;17.50;99.90;;;;;;5012683;28;20033;-71
2023/08/04 02:18:56;;;;;;;21.13;18.25;;;17.40;99.90;;;;;;4995972;28;20494;-71
2023/08/04 02:21:22;;;;;;;;;;;17.40;99.90;;;;;;5012335;28;20038;-72
2023/08/04 02:23:48;;;;;;;17.98;15.93;;;17.40;99.90;;;;;;5013657;28;19912;-72
2023/08/04 02:26:14;;;;;;;23.27;20.77;;;17.40;99.90;;;;;;5013124;28;20030;-72
2023/08/04 02:28:40;;;;;;;25.77;23.33;;;17.40;99.90;;;;;;5013317;28;20033;-72
2023/08/04 02:31:06;;;;;;;25.20;22.52;;;17.40;99.90;;;;;;5011526;28;20048;-72
2023/08/04 02:33:32;;;;;;;23.30;21.02;;;17.40;99.90;;;;;;5011990;28;20040;-72
2023/08/04 02:36:02;;;;;;;20.67;18.05;;;17.30;99.90;;;;;;5013052;28;20053;-72
2023/08/04 02:38:28;;;;;;;18.45;15.75;;;17.30;99.90;;;;;;4994167;28;20041;-71
2023/08/04 02:41:00;;;;;;;19.65;17.65;;;17.20;99.90;;;;;;4983389;28;20034;-72
2023/08/04 02:43:26;;;;;;;19.80;17.55;;;17.20;99.90;;;;;;4997133;28;20518;-72
2023/08/04 02:45:53;;;;;;;20.70;15.70;;;17.10;99.90;;;;;;5012521;28;20042;-72
2023/08/04 02:48:19;;;;;;;22.52;20.33;;;17.10;99.90;;;;;;5014193;28;20491;-72
2023/08/04 02:50:46;;;;;;;19.15;11.77;;;17.10;99.90;;;;;;5012840;28;20054;-72
2023/08/04 02:53:13;;;;;;;16.80;13.70;;;17.10;99.90;;;;;;5013497;28;20038;-72
2023/08/04 02:55:39;;;;;;;18.05;14.88;;;17.10;99.90;;;;;;5014303;28;20034;-72
2023/08/04 02:58:05;;;;;;;20.58;13.95;;;17.20;99.90;;;;;;5014383;28;20030;-72
2023/08/04 03:00:32;;;;;;;18.50;14.15;;;17.10;99.90;;;;;;5013268;28;20061;-72
2023/08/04 03:02:58;;;;;;;17.60;15.70;;;17.00;99.90;;;;;;5013371;28;20030;-72
2023/08/04 03:05:25;;;;;;;17.58;15.32;;;17.10;99.90;;;;;;4996297;28;20053;-72
2023/08/04 03:07:51;;;;;;;17.38;13.23;;;17.10;99.90;;;;;;5013216;28;20034;-72
2023/08/04 03:10:17;;;;;;;19.83;16.70;;;17.10;99.90;;;;;;5012747;28;20044;-72
2023/08/04 03:12:43;;;;;;;21.63;18.15;;;17.20;99.90;;;;;;5014115;28;20045;-73
2023/08/04 03:15:10;;;;;;;16.88;15.25;;;17.10;99.90;;;;;;5011688;28;20042;-72
2023/08/04 03:17:36;;;;;;;17.08;14.10;;;17.10;99.90;;;;;;5014068;28;20033;-72
2023/08/04 03:20:02;;;;;;;22.73;13.80;;;17.20;99.90;;;;;;5014023;28;20025;-72
2023/08/04 03:22:28;;;;;;;16.58;13.38;;;17.20;99.90;;;;;;5012277;28;20042;-72
2023/08/04 03:24:54;;;;;;;21.08;15.15;;;17.20;99.90;;;;;;5014030;28;20479;-72
2023/08/04 03:27:21;;;;;;;17.17;13.65;;;17.20;99.90;;;;;;5012395;28;20045;-72
2023/08/04 03:29:47;;;;;;;15.85;14.10;;;17.10;99.90;;;;;;5013564;28;20037;-72
2023/08/04 03:32:13;;;;;;;16.50;13.30;;;17.10;99.90;;;;;;5012049;28;20045;-72
2023/08/04 03:34:39;;;;;;;19.73;13.18;;;17.10;99.90;;;;;;5012487;28;20030;-72
2023/08/04 03:37:05;;;;;;;22.42;18.92;;;17.10;99.90;;;;;;5013482;28;20038;-71
2023/08/04 03:39:31;;;;;;;21.20;19.35;;;17.10;99.90;;;;;;5013746;28;20034;-72
2023/08/04 03:41:57;;;;;;;17.30;14.07;;;16.90;99.90;;;;;;5013290;28;20042;-72
2023/08/04 03:44:23;;;;;;;22.15;17.40;;;17.00;99.90;;;;;;5013210;28;20030;-72
2023/08/04 03:46:50;;;;;;;17.15;15.45;;;17.00;99.90;;;;;;5011599;28;20471;-72
2023/08/04 03:49:16;;;;;;;17.25;15.43;;;17.00;99.90;;;;;;5013497;28;20086;-72
2023/08/04 03:51:42;;;;;;;21.40;19.20;;;17.00;99.90;;;;;;5011612;28;20053;-71
2023/08/04 03:54:08;;;;;;;17.95;15.98;;;16.90;99.90;;;;;;5012358;28;20038;-72
2023/08/04 03:56:34;;;;;;;21.45;15.27;;;16.90;99.90;;;;;;5011836;28;20037;-72
2023/08/04 03:59:00;;;;;;;22.20;20.05;;;16.90;99.90;;;;;;5013135;28;20026;-72
2023/08/04 04:01:26;;;;;;;17.27;15.45;;;16.90;99.90;;;;;;5010765;28;20544;-72
2023/08/04 04:03:53;;;;;;;18.10;15.77;;;16.90;99.90;;;;;;5012284;28;20030;-72
2023/08/04 04:06:19;;;;;;;14.65;12.93;;;16.80;99.90;;;;;;5011854;28;20041;-72
2023/08/04 04:08:45;;;;;;;15.93;13.27;;;16.90;99.90;;;;;;5012059;28;20518;-72
2023/08/04 04:11:12;;;;;;;16.50;13.30;;;16.90;99.90;;;;;;5011528;28;20034;-71
2023/08/04 04:13:38;;;;;;;17.95;14.52;;;16.90;99.90;;;;;;5011823;28;20026;-72
2023/08/04 04:16:04;;;;;;;18.10;13.68;;;16.90;99.90;;;;;;5012236;28;20022;-72
2023/08/04 04:18:30;;;;;;;16.85;13.00;;;16.90;99.90;;;;;;5013034;28;20030;-72
2023/08/04 04:20:56;;;;;;;17.98;15.90;;;16.90;99.90;;;;;;5012893;28;20089;-72
2023/08/04 04:23:22;;;;;;;18.45;16.63;;;16.90;99.90;;;;;;5009338;28;20022;-72
2023/08/04 04:25:50;;;;;;;17.38;13.30;;;17.00;99.90;;;;;;5009533;28;20041;-71
2023/08/04 04:28:16;;;;;;;23.40;18.98;;;17.00;99.90;;;;;;5011426;28;20442;-71
2023/08/04 04:30:42;;;;;;;16.40;14.23;;;16.90;99.90;;;;;;5012437;28;20049;-71
2023/08/04 04:33:08;;;;;;;23.10;17.80;;;16.90;99.90;;;;;;5012738;28;20042;-71
2023/08/04 04:35:34;;;;;;;16.48;12.27;;;16.80;99.90;;;;;;5011808;28;20033;-71
2023/08/04 04:38:00;;;;;;;17.52;15.10;;;16.80;99.90;;;;;;5012821;28;20049;-71
2023/08/04 04:40:26;;;;;;;22.65;15.50;;;16.80;99.90;;;;;;5012671;28;20302;-71
2023/08/04 04:42:52;;;;;;;16.40;12.70;;;16.80;99.90;;;;;;5012377;28;20026;-72
2023/08/04 04:45:18;;;;;;;13.88;10.95;;;16.80;99.90;;;;;;5012259;28;20030;-72
2023/08/04 04:47:45;;;;;;;14.15;12.23;;;16.80;99.90;;;;;;5012834;28;20033;-71
2023/08/04 04:50:11;;;;;;;15.20;12.23;;;16.70;99.90;;;;;;5011276;28;20046;-72
2023/08/04 04:52:38;;;;;;;16.55;13.82;;;16.70;99.90;;;;;;5012564;28;20054;-71
2023/08/04 04:55:04;;;;;;;20.17;18.52;;;16.80;99.90;;;;;;5011187;28;20033;-71
2023/08/04 04:57:31;;;;;;;16.02;11.70;;;16.80;99.90;;;;;;5012282;28;20041;-72
2023/08/04 04:59:57;;;;;;;19.60;13.15;;;16.70;99.90;;;;;;5011349;28;20026;-71
2023/08/04 05:02:23;;;;;;;14.10;11.18;;;16.80;99.90;;;;;;5010812;28;20049;-72
2023/08/04 05:04:49;;;;;;;14.82;13.30;;;16.70;99.90;;;;;;5012591;28;20380;-72
2023/08/04 05:07:15;;;;;;;19.95;17.88;;;16.70;99.90;;;;;;5012600;28;20392;-71
2023/08/04 05:09:41;;;;;;;21.58;19.48;;;16.60;99.90;;;;;;5012453;28;20033;-71
2023/08/04 05:12:07;;;;;;;15.52;12.40;;;16.70;99.90;;;;;;5013600;28;20411;-72
2023/08/04 05:14:36;;;;;;;24.95;22.55;;;16.70;99.90;;;;;;5015205;28;20391;-72
2023/08/04 05:17:03;;;;;;;16.25;14.52;;;16.70;99.90;;;;;;5016155;28;20391;-71
2023/08/04 05:19:29;;;;;;;20.58;15.52;;;16.70;99.90;;;;;;5016489;28;20033;-72
2023/08/04 05:21:55;;;;;;;20.17;17.80;;;16.80;99.90;;;;;;5016268;28;20033;-74
2023/08/04 05:24:21;;;;;;;17.75;13.00;;;16.70;99.90;;;;;;5015062;28;20029;-72
2023/08/04 05:26:47;;;;;;;14.05;11.38;;;16.80;99.90;;;;;;5016006;28;20030;-72
2023/08/04 05:29:13;;;;;;;20.83;18.92;;;16.90;99.90;;;;;;5016281;28;20037;-72
2023/08/04 05:31:39;;;;;;;16.75;14.00;;;16.80;99.90;;;;;;5028748;28;20033;-72
2023/08/04 05:34:05;;;;;;;25.48;23.63;;;16.80;99.90;;;;;;5034564;28;20029;-73
2023/08/04 05:36:31;;;;;;;20.27;18.60;;;16.70;99.90;;;;;;5017990;28;20041;-72
2023/08/04 05:38:57;;;;;;;15.70;14.13;;;16.70;99.90;;;;;;5035922;28;20044;-72
2023/08/04 05:41:24;;;;;;;14.73;13.23;;;16.80;99.90;;;;;;5035399;28;20029;-72
2023/08/04 05:43:50;;;;;;;18.77;14.48;;;16.70;99.90;;;;;;5035540;28;20025;-74
2023/08/04 05:46:16;;;;;;;19.67;17.65;;;16.60;99.90;;;;;;5033905;28;20037;-74
2023/08/04 05:48:42;;;;;;;20.42;18.35;;;16.70;99.90;;;;;;5035489;28;20494;-74
2023/08/04 05:51:08;;;;;;;20.95;19.10;;;16.80;99.90;;;;;;5035481;28;20052;-72
2023/08/04 05:53:34;;;;;;;20.75;18.83;;;16.90;99.90;;;;;;5035466;28;20064;-75
2023/08/04 05:56:00;;;;;;;16.20;14.88;;;16.90;99.90;;;;;;5033941;28;20029;-72
2023/08/04 05:58:26;;;;;;;15.95;14.38;;;17.00;99.90;;;;;;5034047;28;20045;-72
2023/08/04 06:00:52;;;;;;;16.55;12.55;;;17.00;99.90;;;;;;5033809;28;20037;-72
2023/08/04 06:03:18;;;;;;;14.20;12.23;;;17.00;99.90;;;;;;5034160;28;20048;-72
2023/08/04 06:05:44;;;;;;;17.67;13.13;;;17.10;99.90;;;;;;5035303;28;20030;-72
2023/08/04 06:08:10;;;;;;;14.63;12.43;;;17.10;99.90;;;;;;5035685;28;20502;-72
2023/08/04 06:10:37;;;;;;;14.40;12.38;;;17.00;99.90;;;;;;5033675;28;20025;-72
2023/08/04 06:13:03;;;;;;;15.35;13.25;;;17.10;99.90;;;;;;5035214;28;20045;-72
2023/08/04 06:15:29;;;;;;;12.52;11.25;;;17.10;99.90;;;;;;5034657;28;20041;-72
2023/08/04 06:17:55;;;;;;;16.23;11.30;;;17.10;99.90;;;;;;5033882;28;20038;-72
2023/08/04 06:20:21;;;;;;;20.25;18.58;;;17.10;99.90;;;;;;5035059;28;20032;-72
2023/08/04 06:22:48;;;;;;;30.90;28.25;;;17.10;99.90;;;;;;5033588;28;20032;-72
2023/08/04 06:25:14;;;;;;;27.90;25.63;;;17.00;99.90;;;;;;5032862;28;20025;-72
2023/08/04 06:27:40;;;;;;;23.45;21.10;;;17.00;99.90;;;;;;5033859;28;20053;-73
2023/08/04 06:30:07;;;;;;;26.00;23.45;;;16.90;99.90;;;;;;5033210;28;20021;-72
2023/08/04 06:32:34;;;;;;;26.67;24.13;;;17.00;99.90;;;;;;5033543;28;20037;-72
2023/08/04 06:35:00;;;;;;;17.08;15.63;;;17.00;99.90;;;;;;5033506;28;20040;-72
2023/08/04 06:37:26;;;;;;;16.10;12.00;;;17.00;99.90;;;;;;5033575;28;20032;-73
2023/08/04 06:39:52;;;;;;;14.85;13.30;;;17.00;99.90;;;;;;5034406;28;20374;-72
2023/08/04 06:42:19;;;;;;;21.58;15.50;;;16.90;99.90;;;;;;5033381;28;20041;-72
2023/08/04 06:44:45;;;;;;;16.52;14.77;;;16.90;99.90;;;;;;5033298;28;20036;-73
2023/08/04 06:47:12;;;;;;;17.98;16.38;;;17.00;99.90;;;;;;5032821;28;20033;-72
2023/08/04 06:49:38;;;;;;;35.72;32.95;;;17.10;99.90;;;;;;4997223;28;20045;-73
2023/08/04 06:52:04;;;;;;;16.38;14.73;;;17.20;99.90;;;;;;4997086;28;20487;-72
2023/08/04 06:54:31;;;;;;;17.00;13.90;;;17.40;99.90;;;;;;5013061;28;20483;-72
2023/08/04 06:56:57;;;;;;;13.90;12.60;;;17.60;99.90;;;;;;5013171;28;20033;-72
2023/08/04 06:59:24;;;;;;;17.13;12.90;;;17.80;99.90;;;;;;5014389;28;20026;-72
2023/08/04 07:01:50;;;;;;;13.45;10.23;;;17.90;99.90;;;;;;5013995;28;20033;-73
2023/08/04 07:04:16;;;;;;;12.40;9.13;;;18.00;99.90;;;;;;5014635;28;20086;-73
2023/08/04 07:06:42;;;;;;;12.30;9.93;;;18.10;99.90;;;;;;5014094;28;20050;-73
2023/08/04 07:09:08;;;;;;;12.02;10.60;;;18.20;99.90;;;;;;5014255;28;20067;-72
2023/08/04 07:11:34;;;;;;;12.70;10.98;;;18.30;99.90;;;;;;5014406;28;20033;-72
2023/08/04 07:14:00;;;;;;;18.63;17.05;;;18.40;99.90;;;;;;5012858;28;20387;-72
2023/08/04 07:16:26;;;;;;;24.55;22.98;;;18.60;99.90;;;;;;5019975;28;20471;-72
2023/08/04 07:18:52;;;;;;;18.65;17.13;;;18.80;99.90;;;;;;5032731;28;20040;-72
2023/08/04 07:21:19;;;;;;;12.93;11.32;;;18.90;99.90;;;;;;5033707;28;20374;-72
2023/08/04 07:23:45;;;;;;;18.40;16.70;;;18.90;99.90;;;;;;5033741;28;20033;-73
2023/08/04 07:26:11;;;;;;;18.50;16.90;;;19.10;99.90;;;;;;5033878;28;20053;-72
2023/08/04 07:28:37;;;;;;;15.60;14.40;;;19.20;99.90;;;;;;5034184;28;20048;-72
2023/08/04 07:31:06;;;;;;;14.15;12.77;;;19.10;99.90;;;;;;5032114;28;20497;-72
2023/08/04 07:33:32;;;;;;;18.95;17.23;;;19.20;99.90;;;;;;5032573;28;20068;-72
2023/08/04 07:35:58;;;;;;;20.20;10.57;;;19.20;99.90;;;;;;5032106;28;20026;-72
2023/08/04 07:38:25;;;;;;;15.05;13.30;;;19.20;99.90;;;;;;5032414;28;20378;-72
2023/08/04 07:40:51;;;;;;;14.10;12.52;;;19.10;99.90;;;;;;5033692;28;20025;-72
2023/08/04 07:43:17;;;;;;;14.95;13.30;;;19.10;99.90;;;;;;5033484;28;20021;-72
2023/08/04 07:45:43;;;;;;;19.63;17.77;;;19.00;99.90;;;;;;5033014;28;20029;-73
2023/08/04 07:48:09;;;;;;;17.63;16.02;;;19.00;99.90;;;;;;5033614;28;20032;-73
2023/08/04 07:50:36;;;;;;;18.30;16.65;;;19.00;99.90;;;;;;5032732;28;20041;-72
2023/08/04 07:53:03;;;;;;;18.48;16.77;;;19.00;99.90;;;;;;5032035;28;20038;-72
2023/08/04 07:55:30;;;;;;;14.40;12.90;;;19.00;99.90;;;;;;5033172;28;20033;-72
2023/08/04 07:57:56;;;;;;;17.17;15.73;;;19.00;99.90;;;;;;5033499;28;20104;-73
2023/08/04 08:00:22;;;;;;;22.92;21.08;;;19.00;99.90;;;;;;5032680;28;21596;-71
2023/08/04 08:02:48;;;;;;;17.25;15.63;;;19.00;99.90;;;;;;5033204;28;20037;-72
2023/08/04 08:05:14;;;;;;;13.75;12.07;;;19.10;99.90;;;;;;5032862;28;20025;-71
2023/08/04 08:07:40;;;;;;;16.45;15.20;;;18.90;99.90;;;;;;5033034;28;20041;-72
2023/08/04 08:10:07;;;;;;;12.15;10.82;;;19.00;99.90;;;;;;5031785;28;20029;-72
2023/08/04 08:12:33;;;;;;;13.05;11.73;;;19.00;99.90;;;;;;5032921;28;20034;-72
2023/08/04 08:14:59;;;;;;;19.95;18.25;;;19.10;99.90;;;;;;5032860;28;20048;-73
2023/08/04 08:17:25;;;;;;;20.52;18.83;;;19.10;99.90;;;;;;5031089;28;20042;-74
2023/08/04 08:19:51;;;;;;;15.73;14.35;;;19.20;99.90;;;;;;5032517;28;20060;-74
2023/08/04 08:22:17;;;;;;;12.13;10.55;;;19.20;99.90;;;;;;5031733;28;20021;-74
2023/08/04 08:24:43;;;;;;;13.57;10.63;;;19.20;99.90;;;;;;5032689;28;20029;-74
2023/08/04 08:27:09;;;;;;;12.80;11.70;;;19.20;99.90;;;;;;5031500;28;20029;-72
2023/08/04 08:29:40;;;;;;;10.25;9.00;;;19.30;99.90;;;;;;5031560;28;20025;-72
2023/08/04 08:32:06;;;;;;;13.60;12.40;;;19.40;99.90;;;;;;5032153;28;20029;-72
2023/08/04 08:34:33;;;;;;;16.50;12.50;;;19.50;99.90;;;;;;5031050;28;20045;-72
2023/08/04 08:36:59;;;;;;;19.52;17.15;;;19.60;99.90;;;;;;5032562;28;20029;-72
2023/08/04 08:39:25;;;;;;;15.15;13.63;;;19.60;99.90;;;;;;5031433;28;20045;-72
2023/08/04 08:41:51;;;;;;;16.05;14.73;;;19.70;99.90;;;;;;5032572;28;20026;-72
2023/08/04 08:44:18;;;;;;;29.60;22.77;;;19.70;99.90;;;;;;5032436;28;20037;-72
2023/08/04 08:46:44;;;;;;;31.77;29.23;;;19.80;99.90;;;;;;5013898;28;20033;-72
2023/08/04 08:49:10;;;;;;;43.88;41.03;;;19.90;99.90;;;;;;5030822;28;20386;-72
2023/08/04 08:51:36;;;;;;;45.45;42.33;;;20.10;99.90;;;;;;5031280;28;20048;-73
2023/08/04 08:54:02;;;;;;;103.22;97.80;;;20.30;99.90;;;;;;5031067;28;20394;-74
2023/08/04 08:56:29;;;;;;;56.20;53.08;;;20.40;99.90;;;;;;5031219;28;20493;-74
2023/08/04 08:58:55;;;;;;;132.40;125.60;;;20.50;99.90;;;;;;5032400;28;20471;-74
2023/08/04 09:01:22;;;;;;;66.97;63.10;;;20.40;99.90;;;;;;5030580;28;20395;-74
2023/08/04 09:03:48;;;;;;;75.18;71.07;;;20.40;99.90;;;;;;5030795;28;20029;-73
2023/08/04 09:06:14;;;;;;;62.17;58.63;;;20.50;99.90;;;;;;5032449;28;20084;-73
2023/08/04 09:08:40;;;;;;;84.80;79.95;;;20.60;99.90;;;;;;5032565;28;20484;-73
2023/08/04 09:11:06;;;;;;;155.27;147.57;;;20.80;99.90;;;;;;5031171;28;20041;-73
2023/08/04 09:13:32;;;;;;;185.68;176.30;;;21.00;99.90;;;;;;5030966;28;20061;-73
2023/08/04 09:15:58;;;;;;;186.65;177.43;;;21.20;99.90;;;;;;5031314;28;20022;-73
2023/08/04 09:18:29;;;;;;;185.05;175.98;;;21.30;99.90;;;;;;5030505;28;20037;-73
2023/08/04 09:21:12;;;;;;;163.88;155.93;;;21.20;99.90;;;;;;5031279;28;20025;-73
2023/08/04 09:23:42;;;;;;;149.85;142.30;;;21.20;99.90;;;;;;5031199;28;20034;-73
2023/08/04 09:26:08;;;;;;;141.32;134.30;;;21.10;99.90;;;;;;5014740;28;20491;-73
2023/08/04 09:28:34;;;;;;;126.28;119.57;;;21.00;99.90;;;;;;5031201;28;20038;-73
2023/08/04 09:31:08;;;;;;;118.75;112.90;;;21.00;99.90;;;;;;5030449;28;20030;-73
2023/08/04 09:33:38;;;;;;;104.95;99.32;;;21.00;99.90;;;;;;5030492;28;20044;-73
2023/08/04 09:36:11;;;;;;;121.32;115.25;;;21.00;99.90;;;;;;5030887;28;20037;-73
2023/08/04 09:38:37;;;;;;;98.38;93.40;;;21.00;99.90;;;;;;5030696;28;20036;-73
2023/08/04 09:41:08;;;;;;;95.47;90.32;;;21.00;99.90;;;;;;5030800;28;20021;-73
2023/08/04 09:43:34;;;;;;;98.63;91.60;;;21.00;99.90;;;;;;5030642;28;20458;-73
2023/08/04 09:46:06;;;;;;;40.78;38.20;;;21.00;99.90;;;;;;5031492;28;20038;-73
2023/08/04 09:48:32;;;;;;;48.15;45.00;;;21.10;99.90;;;;;;5030288;28;20037;-73
2023/08/04 09:51:19;;;;;;;89.70;84.35;;;21.30;99.90;;;;;;5030569;28;20060;-73
2023/08/04 09:53:46;;;;;;;32.78;30.88;;;21.40;99.90;;;;;;5031822;28;20046;-73
2023/08/04 09:56:20;;;;;;;40.67;38.45;;;21.60;99.90;;;;;;5014108;28;20029;-73
2023/08/04 09:58:46;;;;;;;65.93;62.45;;;21.70;99.90;;;;;;5031505;28;20022;-73
2023/08/04 10:01:13;;;;;;;47.83;45.03;;;21.70;99.90;;;;;;5033193;28;20482;-73
2023/08/04 10:03:54;;;;;;;150.95;143.63;;;21.70;99.90;;;;;;5034139;28;20044;-73
2023/08/04 10:06:20;;;;;;;36.65;34.20;;;22.00;99.90;;;;;;5035431;28;20026;-73
2023/08/04 10:08:48;;;;;;;47.15;44.47;;;22.30;99.90;;;;;;5034306;28;20030;-74
2023/08/04 10:11:14;;;;;;;36.05;34.03;;;22.40;99.90;;;;;;5034142;28;20485;-75
2023/08/04 10:13:42;;;;;;;44.25;41.75;;;22.40;99.90;;;;;;5033937;28;20056;-75
2023/08/04 10:16:10;;;;;;;39.85;37.50;;;22.40;99.90;;;;;;5033206;28;20033;-75
2023/08/04 10:18:49;;;;;;;38.40;36.33;;;22.60;99.90;;;;;;5017724;28;20045;-76
2023/08/04 10:21:16;;;;;;;37.25;34.92;;;22.70;99.90;;;;;;5035232;28;20458;-75
2023/08/04 10:23:42;;;;;;;43.90;41.05;;;22.80;99.90;;;;;;5033794;28;20033;-73
2023/08/04 10:26:11;;;;;;;48.65;45.95;;;22.90;99.90;;;;;;5035102;28;20378;-73
2023/08/04 10:29:09;;;;;;;50.83;47.70;;;23.10;99.90;;;;;;5033853;28;20025;-72
2023/08/04 10:31:55;;;;;;;112.32;106.88;;;23.10;99.90;;;;;;5034274;28;20487;-72
2023/08/04 10:34:32;;;;;;;115.75;109.72;;;23.00;99.90;;;;;;5033525;28;20040;-72
2023/08/04 10:37:10;;;;;;;102.72;97.53;;;23.10;99.90;;;;;;5033665;28;20025;-73
2023/08/04 10:39:40;;;;;;;107.57;102.22;;;22.90;99.90;;;;;;5033747;28;20028;-73
2023/08/04 10:42:12;;;;;;;87.80;83.47;;;22.60;99.90;;;;;;5034738;28;20359;-73
2023/08/04 10:44:48;;;;;;;81.43;77.38;;;22.40;99.90;;;;;;5032931;28;20029;-75
2023/08/04 10:47:14;;;;;;;105.72;99.88;;;22.20;99.90;;;;;;5032843;28;20030;-75
2023/08/04 10:49:40;;;;;;;132.27;125.72;;;22.00;99.90;;;;;;5017041;28;20028;-75
2023/08/04 10:52:07;;;;;;;70.90;67.25;;;22.00;99.90;;;;;;5033050;28;20053;-75
2023/08/04 10:54:33;;;;;;;72.90;69.25;;;22.10;99.90;;;;;;5034415;28;20045;-75
2023/08/04 10:56:59;;;;;;;70.43;66.75;;;22.00;99.90;;;;;;5033349;28;20026;-75
2023/08/04 10:59:25;;;;;;;74.10;70.35;;;22.20;99.90;;;;;;5033900;28;20033;-75
2023/08/04 11:01:51;;;;;;;111.32;105.55;;;22.40;99.90;;;;;;5032715;28;20026;-74
2023/08/04 11:04:18;;;;;;;134.32;127.55;;;22.50;99.90;;;;;;5034284;28;20029;-75
2023/08/04 11:06:44;;;;;;;121.57;115.35;;;22.60;99.90;;;;;;5034159;28;20026;-75
2023/08/04 11:09:11;;;;;;;115.10;109.28;;;22.50;99.90;;;;;;5032828;28;20026;-75
2023/08/04 11:11:37;;;;;;;113.75;108.15;;;22.50;99.90;;;;;;5034240;28;20025;-75
2023/08/04 11:14:07;;;;;;;136.15;129.60;;;22.60;99.90;;;;;;5032393;28;20046;-75
2023/08/04 11:16:35;;;;;;;147.05;139.82;;;22.70;99.90;;;;;;5032230;28;20029;-74
2023/08/04 11:19:08;;;;;;;126.22;119.88;;;22.60;99.90;;;;;;5032933;28;20370;-75
2023/08/04 11:21:34;;;;;;;148.32;141.05;;;22.50;99.90;;;;;;5032426;28;20036;-75
2023/08/04 11:24:00;;;;;;;137.77;130.90;;;22.60;99.90;;;;;;5033816;28;20030;-75
2023/08/04 11:26:28;;;;;;;142.95;135.75;;;22.60;99.90;;;;;;5033777;28;20025;-75
2023/08/04 11:29:00;;;;;;;138.40;131.60;;;22.60;99.90;;;;;;5016103;28;20041;-75
2023/08/04 11:31:27;;;;;;;121.20;115.00;;;22.50;99.90;;;;;;5031967;28;20030;-75
2023/08/04 11:33:53;;;;;;;110.60;105.13;;;22.50;99.90;;;;;;5033620;28;20042;-75
2023/08/04 11:36:19;;;;;;;122.88;116.78;;;22.40;99.90;;;;;;5032433;28;20040;-75
2023/08/04 11:38:45;;;;;;;126.20;119.72;;;22.40;99.90;;;;;;5032489;28;20042;-75
2023/08/04 11:41:11;;;;;;;119.35;113.40;;;22.60;99.90;;;;;;5032283;28;20029;-75
2023/08/04 11:43:37;;;;;;;122.20;116.25;;;22.70;99.90;;;;;;5032027;28;20382;-75
2023/08/04 11:46:06;;;;;;;130.93;124.53;;;22.80;99.90;;;;;;5032980;28;20036;-75
2023/08/04 11:48:34;;;;;;;130.13;123.72;;;22.70;99.90;;;;;;5032276;28;20036;-74
2023/08/04 11:51:00;;;;;;;141.18;134.40;;;22.70;99.90;;;;;;5032018;28;20405;-75
2023/08/04 11:53:27;;;;;;;159.68;152.07;;;22.70;99.90;;;;;;5015657;28;20045;-75
2023/08/04 11:55:57;;;;;;;182.57;173.98;;;22.90;99.90;;;;;;5033497;28;20390;-75
2023/08/04 11:58:43;;;;;;;147.25;140.15;;;22.90;99.90;;;;;;5032881;28;20106;-74
2023/08/04 12:01:26;;;;;;;168.77;160.52;;;23.10;99.90;;;;;;5032658;28;20033;-74
2023/08/04 12:03:52;;;;;;;79.00;75.10;;;23.20;99.90;;;;;;5031972;28;20030;-75
2023/08/04 12:06:20;;;;;;;97.97;93.13;;;23.20;99.90;;;;;;5033159;28;20037;-75
2023/08/04 12:09:05;;;;;;;73.80;69.80;;;23.10;99.90;;;;;;5033192;28;20378;-75
2023/08/04 12:11:31;;;;;;;67.22;63.83;;;23.20;99.90;;;;;;5032733;28;20418;-75
2023/08/04 12:14:07;;;;;;;87.15;82.75;;;23.20;99.90;;;;;;5031792;28;20052;-75
2023/08/04 12:16:50;;;;;;;100.25;95.38;;;23.30;99.90;;;;;;5011678;28;20045;-75
2023/08/04 12:19:17;;;;;;;83.82;79.47;;;23.20;99.90;;;;;;5013099;28;20018;-75
2023/08/04 12:21:43;;;;;;;76.93;73.15;;;23.10;99.90;;;;;;5011361;28;20030;-74
2023/08/04 12:24:10;;;;;;;91.38;86.90;;;23.10;99.90;;;;;;5012908;28;20046;-75
2023/08/04 12:26:36;;;;;;;77.40;73.60;;;23.00;99.90;;;;;;5011649;28;20032;-75